Terminal Aerodrome Forecast
Issued by NWS

Home | Current Version | Previous Version | Text Only | Print | Product List | Glossary On
Versions: 1 2 3 4 5 6 7 8 9 10 11 12 13 14 15 16 17 18 19
000
FTUS41 KPBZ 111140
TAFBVI
TAF
KBVI 111140Z 1112/1212 17003KT 2SM -SN OVC015
     FM111700 15006KT 3SM -SN OVC035
     FM120200 19008KT 3SM -RASN OVC015
     FM120900 21008KT 3SM -RA OVC008
      AMD NOT SKED=

USA.gov is the U.S. government's official web portal to all federal, state and local government web resources and services.